Time;durP1;ratioP1;P1;durP2;ratioP2;P2;SDS_P1;SDS_P2;PMS_P1;PMS_P2;Temp;Humidity;BMP_temperature;BMP_pressure;BME280_temperature;BME280_humidity;BME280_pressure;Samples;Min_cycle;Max_cycle;Signal;HPM_P1;HPM_P2
2024/01/17 00:00:49;;;;;;;4.32;1.50;;;;;;;-0.53;74.25;100503.09;5036055;28;20041;-84
2024/01/17 00:03:22;;;;;;;2.70;1.42;;;;;;;-0.58;75.41;100501.03;5031030;28;20057;-86
2024/01/17 00:05:53;;;;;;;3.72;2.10;;;;;;;-0.61;79.71;100488.97;5037838;28;20077;-86
2024/01/17 00:08:22;;;;;;;4.07;2.28;;;;;;;-0.71;83.08;100500.19;5031257;28;20050;-86
2024/01/17 00:10:51;;;;;;;2.08;1.70;;;;;;;-0.70;84.94;100484.13;5029077;28;20069;-83
2024/01/17 00:13:20;;;;;;;2.60;1.75;;;;;;;-0.67;87.34;100474.19;5018578;28;20148;-84
2024/01/17 00:15:51;;;;;;;3.65;1.55;;;;;;;-0.74;89.40;100477.06;5023975;28;20081;-84
2024/01/17 00:18:22;;;;;;;6.72;1.90;;;;;;;-0.71;87.47;100477.31;5027248;28;20117;-81
2024/01/17 00:20:50;;;;;;;3.35;2.17;;;;;;;-0.70;90.21;100483.25;5037255;28;20049;-80
2024/01/17 00:23:20;;;;;;;5.28;1.90;;;;;;;-0.73;91.44;100477.97;5030670;28;20045;-81
2024/01/17 00:25:51;;;;;;;2.97;1.83;;;;;;;-0.72;91.95;100469.56;5033729;28;20061;-85
2024/01/17 00:28:20;;;;;;;2.65;1.65;;;;;;;-0.76;92.52;100437.97;5031403;28;20088;-84
2024/01/17 00:30:49;;;;;;;5.32;1.92;;;;;;;-0.87;92.17;100426.19;5028540;28;20048;-85
2024/01/17 00:33:18;;;;;;;2.95;1.35;;;;;;;-0.86;93.25;100411.06;5032508;28;20063;-82
2024/01/17 00:35:58;;;;;;;;;;;;;;;;;;;;;
2024/01/17 00:38:27;;;;;;;3.50;1.92;;;;;;;-1.01;96.33;100414.19;5025783;28;20050;-82
2024/01/17 00:40:56;;;;;;;3.13;1.58;;;;;;;-1.11;98.58;100408.47;5027202;28;20096;-82
2024/01/17 00:43:25;;;;;;;3.58;1.58;;;;;;;-1.14;100.00;100407.38;5029421;28;20053;-81
2024/01/17 00:45:57;;;;;;;3.00;1.63;;;;;;;-1.26;99.85;100397.22;5032893;28;20069;-83
2024/01/17 00:48:25;;;;;;;4.35;1.92;;;;;;;-1.33;100.00;100405.19;5033966;28;20049;-84
2024/01/17 00:50:56;;;;;;;5.13;2.00;;;;;;;-1.27;100.00;100398.88;5030331;28;20062;-83
2024/01/17 00:53:25;;;;;;;4.60;2.40;;;;;;;-1.18;100.00;100401.19;5027277;28;20054;-82
2024/01/17 00:55:55;;;;;;;4.70;1.92;;;;;;;-1.22;100.00;100399.22;5022816;28;20055;-82
2024/01/17 00:58:26;;;;;;;5.13;2.40;;;;;;;-1.27;100.00;100403.09;5022715;28;20053;-82
2024/01/17 01:00:55;;;;;;;4.25;2.20;;;;;;;-1.13;100.00;100407.47;5024583;28;20069;-82
2024/01/17 01:03:24;;;;;;;3.88;2.35;;;;;;;-1.07;100.00;100404.50;5033555;28;20045;-83
2024/01/17 01:05:53;;;;;;;5.43;2.10;;;;;;;-1.13;100.00;100399.84;5026811;28;20137;-81
2024/01/17 01:08:26;;;;;;;4.30;1.95;;;;;;;-1.14;100.00;100403.19;5026064;28;20041;-82
2024/01/17 01:10:55;;;;;;;2.97;1.33;;;;;;;-1.15;100.00;100405.59;5024347;28;20053;-86
2024/01/17 01:13:24;;;;;;;4.30;2.17;;;;;;;-1.24;100.00;100389.72;5019126;28;20057;-82
2024/01/17 01:15:53;;;;;;;4.00;1.77;;;;;;;-1.31;100.00;100380.78;5024440;28;20054;-82
2024/01/17 01:18:21;;;;;;;4.78;1.75;;;;;;;-1.49;100.00;100368.59;5028242;28;20046;-82
2024/01/17 01:20:50;;;;;;;5.18;2.05;;;;;;;-1.47;100.00;100361.06;5024722;28;20141;-81
2024/01/17 01:23:19;;;;;;;3.40;1.73;;;;;;;-1.36;100.00;100364.38;5033779;28;20045;-84
2024/01/17 01:25:49;;;;;;;6.00;1.90;;;;;;;-1.31;100.00;100357.94;5027874;28;20061;-84
2024/01/17 01:28:18;;;;;;;5.13;2.33;;;;;;;-1.24;100.00;100359.25;5026433;28;20069;-81
2024/01/17 01:30:52;;;;;;;4.43;1.85;;;;;;;-1.18;100.00;100355.50;5024277;28;20055;-83
2024/01/17 01:33:21;;;;;;;3.60;1.58;;;;;;;-1.20;100.00;100338.41;5029442;28;20056;-83
2024/01/17 01:35:50;;;;;;;3.15;1.80;;;;;;;-1.12;100.00;100330.56;5027560;28;20126;-84
2024/01/17 01:38:19;;;;;;;2.80;2.17;;;;;;;-1.06;100.00;100341.09;5028307;28;20049;-83
2024/01/17 01:40:58;;;;;;;5.93;2.13;;;;;;;-1.02;100.00;100333.72;5026847;28;20042;-82
2024/01/17 01:43:28;;;;;;;2.67;1.63;;;;;;;-0.95;100.00;100333.34;5035062;28;20149;-86
2024/01/17 01:46:15;;;;;;;6.05;1.95;;;;;;;-0.94;100.00;100355.44;5029020;28;20054;-83
2024/01/17 01:48:45;;;;;;;3.20;1.42;;;;;;;-0.87;100.00;100352.53;5028616;28;20053;-84
2024/01/17 01:51:15;;;;;;;2.38;1.65;;;;;;;-0.80;100.00;100348.75;5028152;28;20113;-83
2024/01/17 01:53:49;;;;;;;3.67;1.80;;;;;;;-0.76;100.00;100349.06;5031809;28;20111;-83
2024/01/17 01:56:23;;;;;;;4.88;1.60;;;;;;;-0.69;100.00;100338.56;5030140;28;20049;-82
2024/01/17 01:58:53;;;;;;;3.00;1.77;;;;;;;-0.68;100.00;100345.38;5029783;28;20041;-87
2024/01/17 02:01:22;;;;;;;4.30;2.15;;;;;;;-0.65;100.00;100329.47;5030168;28;20048;-83
2024/01/17 02:04:00;;;;;;;1.75;1.50;;;;;;;-0.60;100.00;100332.31;5028171;28;20073;-83
2024/01/17 02:06:32;;;;;;;4.85;2.58;;;;;;;-0.58;100.00;100333.31;5029196;28;20050;-83
2024/01/17 02:09:15;;;;;;;4.05;2.50;;;;;;;-0.52;100.00;100319.34;5016802;28;20181;-81
2024/01/17 02:11:46;;;;;;;3.08;1.73;;;;;;;-0.45;100.00;100335.88;5023242;28;20054;-82
2024/01/17 02:14:17;;;;;;;4.40;2.35;;;;;;;-0.41;100.00;100325.16;5014069;28;20121;-84
2024/01/17 02:16:55;;;;;;;3.63;1.92;;;;;;;-0.38;100.00;100325.34;5022987;28;20057;-84
2024/01/17 02:19:25;;;;;;;3.08;2.00;;;;;;;-0.33;100.00;100323.97;5028417;28;20080;-83
2024/01/17 02:21:54;;;;;;;4.13;2.15;;;;;;;-0.26;100.00;100331.22;5032043;28;20053;-84
2024/01/17 02:24:24;;;;;;;5.55;2.20;;;;;;;-0.24;100.00;100327.13;5022277;28;20044;-83
2024/01/17 02:26:57;;;;;;;5.20;2.58;;;;;;;-0.25;100.00;100322.84;5025106;28;20124;-84
2024/01/17 02:29:26;;;;;;;3.83;2.22;;;;;;;-0.19;100.00;100312.16;5020795;28;20046;-84
2024/01/17 02:31:56;;;;;;;5.45;2.17;;;;;;;-0.14;100.00;100305.72;5034273;28;20059;-84
2024/01/17 02:34:25;;;;;;;6.78;3.17;;;;;;;-0.05;100.00;100313.06;5045886;28;20044;-85
2024/01/17 02:36:58;;;;;;;5.47;3.00;;;;;;;-0.06;100.00;100289.28;5041517;28;20049;-85
2024/01/17 02:39:29;;;;;;;6.20;2.85;;;;;;;0.02;100.00;100299.94;5039156;28;20535;-84
2024/01/17 02:41:58;;;;;;;7.05;2.97;;;;;;;0.04;100.00;100295.84;5038177;28;20045;-86
2024/01/17 02:44:27;;;;;;;7.82;3.13;;;;;;;0.09;100.00;100296.13;5047474;28;20122;-87
2024/01/17 02:47:07;;;;;;;5.63;2.55;;;;;;;0.13;100.00;100290.47;5046540;28;20049;-84
2024/01/17 02:49:36;;;;;;;6.10;2.42;;;;;;;0.10;100.00;100283.53;5048604;28;20061;-87
2024/01/17 02:52:06;;;;;;;5.05;2.75;;;;;;;0.16;100.00;100283.94;5046204;28;20064;-87
2024/01/17 02:54:41;;;;;;;30.77;11.93;;;;;;;0.16;100.00;100272.84;5042251;28;20527;-85
2024/01/17 03:04:55;;;;;;;8.55;3.78;;;;;;;0.15;100.00;100261.78;5245951;23;20045;-84
2024/01/17 03:07:24;;;;;;;11.32;4.38;;;;;;;0.22;100.00;100257.97;5051104;28;20048;-85
2024/01/17 03:10:12;;;;;;;6.95;2.92;;;;;;;0.24;100.00;100245.34;5047378;28;20063;-88
2024/01/17 03:12:42;;;;;;;6.80;2.75;;;;;;;0.24;100.00;100242.81;5044338;28;20040;-86
2024/01/17 03:23:01;;;;;;;5.05;2.70;;;;;;;0.34;100.00;100248.53;5507861;23;20060;-84
2024/01/17 03:25:36;;;;;;;4.45;2.30;;;;;;;0.33;100.00;100234.06;5030150;28;20084;-86
2024/01/17 03:28:05;;;;;;;4.22;1.85;;;;;;;0.30;100.00;100212.63;5029657;28;20113;-86
2024/01/17 03:30:43;;;;;;;4.30;2.42;;;;;;;0.32;100.00;100232.34;5034679;28;20057;-88
2024/01/17 03:43:45;;;;;;;8.18;2.28;;;;;;;0.09;100.00;100202.91;5318571;23;20233;-86
2024/01/17 03:54:00;;;;;;;3.67;2.20;;;;;;;0.07;100.00;100193.41;5699247;23;20055;-88
2024/01/17 03:56:29;;;;;;;3.33;1.83;;;;;;;0.08;100.00;100185.00;4996507;28;20050;-86
2024/01/17 03:59:12;;;;;;;3.55;1.92;;;;;;;0.02;100.00;100185.50;5002250;28;20042;-85
2024/01/17 04:01:47;;;;;;;3.83;2.53;;;;;;;0.10;100.00;100184.31;4998864;28;20046;-85
2024/01/17 04:04:18;;;;;;;4.22;2.38;;;;;;;0.17;100.00;100163.56;4990462;28;20046;-86
2024/01/17 04:06:47;;;;;;;4.85;1.88;;;;;;;0.20;100.00;100165.41;5006577;28;20042;-87
2024/01/17 04:09:16;;;;;;;3.53;2.30;;;;;;;0.25;100.00;100170.78;5002872;28;20430;-85
2024/01/17 04:11:45;;;;;;;3.80;1.90;;;;;;;0.28;100.00;100163.34;4988579;28;20101;-84
2024/01/17 04:14:25;;;;;;;2.30;1.70;;;;;;;0.24;100.00;100146.13;4993009;28;20054;-87
2024/01/17 04:16:57;;;;;;;4.47;2.60;;;;;;;0.32;100.00;100155.09;4986423;28;20054;-89
2024/01/17 04:19:26;;;;;;;2.70;1.65;;;;;;;0.29;100.00;100139.66;5001575;28;20054;-88
2024/01/17 05:30:33;;;;;;;4.03;2.17;;;;;;;-0.81;100.00;100049.81;5539053;22;20493;-89
2024/01/17 05:33:02;;;;;;;2.85;1.88;;;;;;;-0.78;100.00;100053.44;5029861;28;20060;-92
2024/01/17 05:35:31;;;;;;;4.90;2.70;;;;;;;-0.81;100.00;100063.38;5028071;28;20076;-91
2024/01/17 05:38:00;;;;;;;6.30;2.90;;;;;;;-0.80;100.00;100054.09;5027116;28;20080;-88
2024/01/17 05:40:32;;;;;;;4.20;2.70;;;;;;;-0.87;100.00;100043.56;5033066;28;20046;-90
2024/01/17 05:43:06;;;;;;;6.45;2.80;;;;;;;-0.95;100.00;100037.09;5030119;28;20091;-89
2024/01/17 05:45:37;;;;;;;4.43;2.58;;;;;;;-0.99;100.00;100046.97;5029737;28;20045;-88
2024/01/17 05:48:08;;;;;;;2.95;2.30;;;;;;;-0.91;100.00;100048.34;5029657;28;20046;-89
2024/01/17 05:50:45;;;;;;;3.97;2.40;;;;;;;-0.85;100.00;100036.03;5029323;28;20057;-90
2024/01/17 05:53:13;;;;;;;6.18;2.47;;;;;;;-0.87;100.00;100027.44;5025691;28;20129;-91
2024/01/17 05:55:42;;;;;;;5.60;3.28;;;;;;;-0.87;100.00;100022.34;5028742;28;20144;-90
2024/01/17 05:58:19;;;;;;;5.20;3.08;;;;;;;-0.78;100.00;100028.03;5030479;28;20053;-90
2024/01/17 06:00:50;;;;;;;6.53;3.00;;;;;;;-0.74;100.00;100024.88;5028809;28;20500;-90
2024/01/17 06:03:19;;;;;;;5.72;2.53;;;;;;;-0.68;100.00;100019.31;5029106;28;20069;-89
2024/01/17 06:05:48;;;;;;;4.28;2.58;;;;;;;-0.60;100.00;100018.13;5025957;28;20567;-89
2024/01/17 06:08:24;;;;;;;5.57;2.72;;;;;;;-0.58;100.00;100008.06;5029681;28;20057;-89
2024/01/17 06:10:53;;;;;;;4.93;2.58;;;;;;;-0.59;100.00;100006.31;5026859;28;20073;-89
2024/01/17 06:13:22;;;;;;;6.13;3.22;;;;;;;-0.51;100.00;100015.25;5016966;28;20059;-89
2024/01/17 06:18:35;;;;;;;4.97;2.72;;;;;;;-0.42;100.00;100000.56;5028067;28;20061;-89
2024/01/17 06:21:04;;;;;;;6.15;2.60;;;;;;;-0.35;100.00;100004.38;5028994;28;20052;-89
2024/01/17 06:23:43;;;;;;;5.82;2.30;;;;;;;-0.34;100.00;99991.78;5034015;28;20041;-88
2024/01/17 06:26:12;;;;;;;3.97;2.13;;;;;;;-0.29;100.00;99990.38;5033584;28;20077;-88
2024/01/17 06:28:41;;;;;;;4.72;2.30;;;;;;;-0.24;100.00;100000.81;5035164;28;20107;-87
2024/01/17 06:31:14;;;;;;;6.88;2.78;;;;;;;-0.23;100.00;99990.75;5029300;28;20054;-88
2024/01/17 06:33:46;;;;;;;5.38;2.92;;;;;;;-0.16;100.00;99996.19;5032670;28;20514;-88
2024/01/17 06:36:15;;;;;;;4.75;2.92;;;;;;;-0.12;100.00;99993.91;5035590;28;20053;-87
2024/01/17 06:38:44;;;;;;;4.45;2.63;;;;;;;-0.10;100.00;99991.47;5030715;28;20140;-87
2024/01/17 06:41:13;;;;;;;4.22;2.83;;;;;;;-0.02;100.00;100001.31;5030349;28;20094;-87
2024/01/17 06:43:49;;;;;;;4.65;2.63;;;;;;;0.04;100.00;99995.72;5034435;28;20052;-87
2024/01/17 06:46:20;;;;;;;3.75;2.50;;;;;;;0.06;100.00;99994.13;5033895;28;20054;-88
2024/01/17 06:48:49;;;;;;;6.15;2.50;;;;;;;0.02;100.00;99987.09;5035086;28;20050;-86
2024/01/17 06:51:17;;;;;;;5.53;2.47;;;;;;;-0.01;100.00;99969.13;5028752;28;20125;-86
2024/01/17 06:53:53;;;;;;;5.75;2.75;;;;;;;0.03;100.00;99973.63;5035096;28;20132;-86
2024/01/17 06:56:22;;;;;;;3.45;2.15;;;;;;;0.02;100.00;99959.13;5032534;28;20045;-86
2024/01/17 06:58:51;;;;;;;4.85;2.67;;;;;;;0.02;100.00;99961.66;5033953;28;20103;-88
2024/01/17 07:01:30;;;;;;;3.92;2.38;;;;;;;-0.01;100.00;99941.16;5031672;28;20045;-86
2024/01/17 07:03:59;;;;;;;4.05;2.58;;;;;;;0.02;100.00;99948.94;5031131;28;20053;-86
2024/01/17 07:06:28;;;;;;;3.58;2.58;;;;;;;0.04;100.00;99942.28;5029769;28;20129;-86
2024/01/17 07:08:58;;;;;;;4.82;2.33;;;;;;;0.08;100.00;99944.22;5030480;28;20137;-85
2024/01/17 07:11:33;;;;;;;7.35;2.70;;;;;;;0.10;100.00;99918.91;5024036;28;20080;-85
2024/01/17 07:14:02;;;;;;;3.85;2.60;;;;;;;0.22;100.00;99928.91;5024821;28;20103;-86
2024/01/17 07:16:33;;;;;;;4.20;2.53;;;;;;;0.26;100.00;99920.66;5030494;28;20062;-87
2024/01/17 07:19:05;;;;;;;4.20;2.42;;;;;;;0.29;100.00;99923.38;5034471;28;20049;-87
2024/01/17 07:21:42;;;;;;;3.15;2.53;;;;;;;0.35;100.00;99926.25;5035243;28;20497;-86
2024/01/17 07:24:11;;;;;;;3.67;2.33;;;;;;;0.36;100.00;99903.44;5035937;28;20049;-86
2024/01/17 07:26:41;;;;;;;3.70;2.22;;;;;;;0.47;100.00;99919.31;5036618;28;20091;-87
2024/01/17 07:29:15;;;;;;;4.40;2.72;;;;;;;0.50;100.00;99910.97;5037224;28;20092;-86
2024/01/17 07:31:46;;;;;;;2.08;1.83;;;;;;;0.49;100.00;99910.09;5029308;28;20144;-86
2024/01/17 07:34:15;;;;;;;3.53;2.03;;;;;;;0.49;100.00;99910.09;5030774;28;20127;-87
2024/01/17 07:36:47;;;;;;;4.18;2.17;;;;;;;0.47;100.00;99916.75;5029257;28;20057;-87
2024/01/17 07:39:18;;;;;;;2.95;1.65;;;;;;;0.45;100.00;99915.81;5029115;28;20068;-87
2024/01/17 07:41:47;;;;;;;4.13;1.80;;;;;;;0.40;100.00;99915.53;5029458;28;20050;-88
2024/01/17 07:44:16;;;;;;;5.82;2.17;;;;;;;0.46;100.00;99904.84;5030314;28;20049;-88
2024/01/17 07:46:48;;;;;;;2.40;1.70;;;;;;;0.45;100.00;99913.25;5028919;28;20461;-86
2024/01/17 07:49:22;;;;;;;4.30;2.13;;;;;;;0.48;100.00;99893.09;5032703;28;20099;-85
2024/01/17 07:51:51;;;;;;;4.82;2.50;;;;;;;0.45;100.00;99885.25;5026399;28;20072;-85
2024/01/17 07:54:19;;;;;;;3.50;2.28;;;;;;;0.51;100.00;99883.06;5032141;28;20057;-85
2024/01/17 07:56:49;;;;;;;4.97;2.65;;;;;;;0.49;100.00;99878.69;5031246;28;20520;-85
2024/01/17 07:59:22;;;;;;;4.80;2.55;;;;;;;0.46;100.00;99874.31;5031815;28;20049;-83
2024/01/17 08:01:53;;;;;;;4.18;2.45;;;;;;;0.38;100.00;99870.44;5034389;28;20494;-85
2024/01/17 08:04:22;;;;;;;7.75;3.17;;;;;;;0.14;100.00;99860.66;5032720;28;20049;-88
2024/01/17 08:06:54;;;;;;;6.13;2.67;;;;;;;0.06;100.00;99871.19;5030998;28;20187;-87
2024/01/17 08:09:27;;;;;;;4.77;2.53;;;;;;;-0.06;100.00;99861.19;5029113;28;20045;-84
2024/01/17 08:11:57;;;;;;;4.57;2.55;;;;;;;-0.15;100.00;99855.56;5031828;28;20053;-86
2024/01/17 08:14:27;;;;;;;3.55;2.55;;;;;;;-0.17;100.00;99846.97;5019843;28;20528;-87
2024/01/17 08:17:06;;;;;;;6.45;2.83;;;;;;;-0.25;100.00;99829.63;5028905;28;20054;-87
2024/01/17 08:19:36;;;;;;;5.82;3.42;;;;;;;-0.25;100.00;99831.28;5024436;28;20057;-87
2024/01/17 08:22:05;;;;;;;7.90;2.92;;;;;;;-0.29;100.00;99825.16;5030156;28;20050;-87
2024/01/17 08:24:37;;;;;;;7.35;3.30;;;;;;;-0.36;100.00;99807.78;5029164;28;20104;-87
2024/01/17 08:27:09;;;;;;;5.20;2.85;;;;;;;-0.29;100.00;99816.66;5030675;28;20142;-87
2024/01/17 08:29:44;;;;;;;5.90;3.30;;;;;;;-0.32;100.00;99811.38;5028254;28;20064;-87
2024/01/17 08:32:24;;;;;;;5.82;2.78;;;;;;;-0.28;100.00;99795.50;5026673;28;20128;-86
2024/01/17 08:34:53;;;;;;;4.80;3.10;;;;;;;-0.13;100.00;99803.16;5030883;28;20061;-86
2024/01/17 08:37:22;;;;;;;4.05;2.45;;;;;;;-0.10;100.00;99805.84;5027157;28;20128;-87
2024/01/17 08:39:51;;;;;;;7.03;2.80;;;;;;;-0.02;100.00;99813.13;5022106;28;20062;-87
2024/01/17 08:42:25;;;;;;;7.47;3.25;;;;;;;0.06;100.00;99810.13;5031555;28;20095;-86
2024/01/17 08:44:54;;;;;;;4.45;2.65;;;;;;;0.14;100.00;99802.16;5028172;28;20140;-87
2024/01/17 08:47:25;;;;;;;5.93;3.03;;;;;;;0.17;100.00;99799.75;5027445;28;20051;-87
2024/01/17 08:49:56;;;;;;;4.50;2.88;;;;;;;0.22;100.00;99797.47;5032224;28;20056;-88
2024/01/17 08:52:31;;;;;;;5.68;3.00;;;;;;;0.24;100.00;99795.88;5035350;28;20132;-86
2024/01/17 08:55:02;;;;;;;5.40;3.22;;;;;;;0.34;100.00;99803.22;5028804;28;20104;-87
2024/01/17 08:57:31;;;;;;;3.20;2.58;;;;;;;0.34;100.00;99802.34;5025042;28;20049;-87
2024/01/17 09:02:44;;;;;;;4.68;2.55;;;;;;;0.25;100.00;99795.09;5027156;28;20040;-87
2024/01/17 09:05:13;;;;;;;4.78;2.50;;;;;;;0.30;100.00;99806.41;5030835;28;20077;-87
2024/01/17 09:07:49;;;;;;;6.35;2.72;;;;;;;0.24;100.00;99775.53;5026690;28;20056;-87
2024/01/17 09:10:19;;;;;;;4.70;2.47;;;;;;;0.18;100.00;99773.56;5024197;28;20053;-87
2024/01/17 09:12:48;;;;;;;6.32;3.17;;;;;;;0.10;100.00;99756.97;5017085;28;22088;-87
2024/01/17 09:15:17;;;;;;;4.55;2.63;;;;;;;0.10;100.00;99749.34;5027332;28;20065;-86
2024/01/17 09:17:54;;;;;;;7.70;2.58;;;;;;;0.01;100.00;99740.34;5026793;28;20272;-87
2024/01/17 09:20:24;;;;;;;5.57;2.90;;;;;;;-0.02;100.00;99738.50;5023535;28;20046;-88
2024/01/17 09:22:53;;;;;;;3.97;2.38;;;;;;;-0.03;100.00;99747.78;5023429;28;20049;-86
2024/01/17 09:25:24;;;;;;;4.00;2.80;;;;;;;-0.01;100.00;99743.66;5031717;28;20057;-87
2024/01/17 09:28:00;;;;;;;6.90;3.67;;;;;;;-0.07;100.00;99728.09;5023762;28;20048;-86
2024/01/17 09:30:29;;;;;;;5.70;2.97;;;;;;;-0.02;100.00;99720.72;5023767;28;20050;-86
2024/01/17 09:32:59;;;;;;;5.57;3.05;;;;;;;0.04;100.00;99715.94;5022275;28;20061;-85
2024/01/17 09:35:35;;;;;;;7.05;2.80;;;;;;;0.03;100.00;99724.38;5026533;28;20057;-86
2024/01/17 09:38:06;;;;;;;5.13;2.55;;;;;;;-0.03;100.00;99719.81;5021430;28;20054;-85
2024/01/17 09:40:36;;;;;;;7.88;3.00;;;;;;;-0.03;100.00;99713.84;5027774;28;20049;-86
2024/01/17 09:43:08;;;;;;;5.13;3.00;;;;;;;0.02;100.00;99725.16;5031096;28;20045;-86
2024/01/17 09:45:41;;;;;;;8.18;3.17;;;;;;;-0.01;100.00;99725.00;5030455;28;20046;-86
2024/01/17 09:48:14;;;;;;;6.57;3.33;;;;;;;-0.01;100.00;99725.00;5028040;28;20496;-86
2024/01/17 09:50:42;;;;;;;;;;;;;;;0.02;100.00;99716.66;5030186;28;20050;-84
2024/01/17 09:53:26;;;;;;;3.85;2.50;;;;;;;0.06;100.00;99716.03;5029505;28;19935;-86
2024/01/17 09:55:56;;;;;;;4.30;2.55;;;;;;;0.12;100.00;99707.06;5030368;28;20053;-87
2024/01/17 09:58:26;;;;;;;6.35;3.30;;;;;;;0.17;100.00;99703.09;5033921;28;20128;-86
2024/01/17 10:00:59;;;;;;;8.32;4.07;;;;;;;0.20;100.00;99698.16;5029168;28;20056;-84
2024/01/17 10:03:31;;;;;;;7.15;2.78;;;;;;;0.22;100.00;99694.84;5031269;28;20037;-85
2024/01/17 10:06:00;;;;;;;5.75;3.13;;;;;;;0.17;100.00;99684.41;5030080;28;20131;-84
2024/01/17 10:08:30;;;;;;;6.93;3.35;;;;;;;0.25;100.00;99684.81;5037487;28;20135;-84
2024/01/17 10:11:06;;;;;;;8.43;4.22;;;;;;;0.29;100.00;99686.75;5025713;28;20083;-84
2024/01/17 10:13:35;;;;;;;7.65;4.20;;;;;;;0.32;100.00;99671.63;5024663;28;20055;-83
2024/01/17 10:16:05;;;;;;;4.25;1.98;;;;;;;0.34;100.00;99664.94;5029934;28;20061;-84
2024/01/17 10:18:42;;;;;;;4.75;2.90;;;;;;;0.28;100.00;99660.44;5030801;28;20057;-84
2024/01/17 10:21:11;;;;;;;6.55;2.72;;;;;;;0.31;100.00;99660.56;5030075;28;20140;-84
2024/01/17 10:23:40;;;;;;;4.88;2.83;;;;;;;0.33;100.00;99659.00;5026983;28;20045;-85
2024/01/17 10:26:10;;;;;;;5.38;2.65;;;;;;;0.33;100.00;99631.00;5029061;28;20088;-84
2024/01/17 10:28:45;;;;;;;5.40;2.97;;;;;;;0.36;100.00;99622.66;5028764;28;20140;-85
2024/01/17 10:31:14;;;;;;;5.47;2.10;;;;;;;0.42;100.00;99622.97;5029845;28;20096;-85
2024/01/17 10:33:45;;;;;;;3.72;2.10;;;;;;;0.39;100.00;99617.72;5029413;28;20061;-85
2024/01/17 10:36:26;;;;;;;8.75;2.85;;;;;;;0.29;100.00;99610.41;5026735;28;20057;-83
2024/01/17 10:39:04;;;;;;;4.45;2.53;;;;;;;0.35;100.00;99615.81;5028114;28;20128;-86
2024/01/17 10:41:35;;;;;;;5.95;2.83;;;;;;;0.37;100.00;99614.25;5029136;28;20064;-86
2024/01/17 10:44:06;;;;;;;5.32;3.17;;;;;;;0.40;100.00;99611.84;5033078;28;20064;-86
2024/01/17 10:46:35;;;;;;;5.05;2.67;;;;;;;0.43;100.00;99604.34;5037402;28;20107;-85
2024/01/17 10:49:06;;;;;;;5.22;2.70;;;;;;;0.36;100.00;99562.44;5036769;28;20050;-85
2024/01/17 10:51:44;;;;;;;4.55;3.00;;;;;;;0.42;100.00;99577.16;5035013;28;20125;-85
2024/01/17 10:54:17;;;;;;;5.00;3.13;;;;;;;0.44;100.00;99592.53;5033911;28;20053;-86
2024/01/17 10:57:04;;;;;;;4.82;2.92;;;;;;;0.35;100.00;99578.53;5030900;28;20057;-85
2024/01/17 10:59:33;;;;;;;9.25;3.50;;;;;;;0.41;100.00;99598.31;5025272;28;20071;-84
2024/01/17 11:02:03;;;;;;;5.60;2.85;;;;;;;0.40;100.00;99599.97;5035387;28;20049;-84
2024/01/17 11:04:44;;;;;;;7.68;3.78;;;;;;;0.46;100.00;99614.72;5041968;28;20125;-86
2024/01/17 11:07:16;;;;;;;6.82;3.75;;;;;;;0.50;100.00;99621.69;5033314;28;20054;-86
2024/01/17 11:09:47;;;;;;;6.90;3.95;;;;;;;0.44;100.00;99595.06;5031585;28;20060;-86
2024/01/17 11:12:20;;;;;;;4.70;3.25;;;;;;;0.55;100.00;99620.28;5031241;28;20053;-86
2024/01/17 11:14:50;;;;;;;7.03;3.58;;;;;;;0.61;100.00;99618.00;5024150;28;20072;-86
2024/01/17 11:17:20;;;;;;;7.25;3.35;;;;;;;0.61;100.00;99595.09;5031588;28;20346;-86
2024/01/17 11:19:53;;;;;;;8.52;3.40;;;;;;;0.68;100.00;99591.19;5025367;28;20069;-86
2024/01/17 11:22:30;;;;;;;7.65;3.55;;;;;;;0.63;100.00;99578.25;5027459;28;20061;-85
2024/01/17 11:25:12;;;;;;;8.43;4.15;;;;;;;0.75;100.00;99557.59;5028149;28;20151;-86
2024/01/17 11:27:54;;;;;;;5.28;3.05;;;;;;;0.75;100.00;99579.66;5029442;28;20086;-86
2024/01/17 11:30:36;;;;;;;5.75;3.63;;;;;;;0.76;100.00;99558.50;5020966;28;20054;-86
2024/01/17 11:33:10;;;;;;;5.38;3.25;;;;;;;0.66;100.00;99551.19;5035958;28;20049;-85
2024/01/17 11:35:48;;;;;;;5.82;2.90;;;;;;;0.61;100.00;99546.75;5032321;28;20492;-86
2024/01/17 11:38:31;;;;;;;5.65;2.63;;;;;;;0.60;100.00;99539.03;5033731;28;20053;-85
2024/01/17 11:41:05;;;;;;;5.72;2.72;;;;;;;0.60;100.00;99532.28;5037187;28;20049;-85
2024/01/17 11:43:37;;;;;;;3.85;2.67;;;;;;;0.63;100.00;99521.38;5022487;28;20053;-86
2024/01/17 11:46:09;;;;;;;6.70;3.13;;;;;;;0.66;100.00;99515.56;5033967;28;20053;-85
2024/01/17 11:48:39;;;;;;;5.90;3.00;;;;;;;0.67;100.00;99524.94;5036958;28;20077;-86
2024/01/17 11:51:22;;;;;;;3.15;2.17;;;;;;;0.70;100.00;99537.81;5033253;28;20085;-84
2024/01/17 11:53:53;;;;;;;4.30;2.65;;;;;;;0.69;100.00;99551.34;5025367;28;20057;-84
2024/01/17 11:56:22;;;;;;;4.50;2.75;;;;;;;0.70;100.00;99533.59;5025662;28;20050;-84
2024/01/17 11:58:56;;;;;;;6.65;3.25;;;;;;;0.69;100.00;99530.97;5023113;28;20056;-84
2024/01/17 12:01:43;;;;;;;4.82;2.45;;;;;;;0.73;100.00;99520.13;5025832;28;20096;-84
2024/01/17 12:04:22;;;;;;;5.68;2.83;;;;;;;0.68;100.00;99550.47;5026563;28;20096;-84
2024/01/17 12:06:54;;;;;;;6.63;3.17;;;;;;;0.66;100.00;99507.91;5029435;28;20061;-83
2024/01/17 12:09:23;;;;;;;6.15;2.95;;;;;;;0.69;100.00;99515.69;5028376;28;20049;-84
2024/01/17 12:11:54;;;;;;;3.90;2.53;;;;;;;0.68;100.00;99499.56;5025257;28;20515;-83
2024/01/17 12:14:30;;;;;;;6.80;3.67;;;;;;;0.63;100.00;99522.22;5018680;28;20049;-83
2024/01/17 12:16:58;;;;;;;4.00;2.60;;;;;;;0.62;100.00;99520.50;5027197;28;20055;-84
2024/01/17 12:19:27;;;;;;;5.20;3.22;;;;;;;0.63;100.00;99506.97;5027027;28;20057;-83
2024/01/17 12:22:00;;;;;;;6.68;3.47;;;;;;;0.63;100.00;99506.97;5018123;28;20132;-84
2024/01/17 12:24:29;;;;;;;4.93;3.05;;;;;;;0.62;100.00;99495.03;5023149;28;20046;-84
2024/01/17 12:26:58;;;;;;;9.20;3.75;;;;;;;0.72;100.00;99500.59;5028152;28;20047;-84
2024/01/17 12:29:27;;;;;;;8.73;4.18;;;;;;;0.75;100.00;99488.00;5027040;28;20153;-84
2024/01/17 12:31:57;;;;;;;6.35;3.13;;;;;;;0.77;100.00;99473.66;5025217;28;20099;-84
2024/01/17 12:34:33;;;;;;;7.88;3.42;;;;;;;0.81;100.00;99465.38;5027314;28;20041;-84
2024/01/17 12:37:03;;;;;;;7.47;3.85;;;;;;;0.84;100.00;99458.75;5025669;28;20053;-84
2024/01/17 12:39:37;;;;;;;5.32;3.28;;;;;;;0.93;100.00;99481.22;5024928;28;20085;-86
2024/01/17 12:42:09;;;;;;;6.65;3.45;;;;;;;0.95;100.00;99479.63;5019387;28;20053;-83
2024/01/17 12:44:38;;;;;;;5.85;3.42;;;;;;;0.94;100.00;99472.81;5029637;28;20049;-83
2024/01/17 12:47:07;;;;;;;4.88;2.55;;;;;;;1.03;100.00;99467.25;5030472;28;20132;-83
2024/01/17 12:49:37;;;;;;;4.88;3.38;;;;;;;0.99;100.00;99460.28;5024936;28;20114;-82
2024/01/17 12:52:16;;;;;;;5.25;3.35;;;;;;;1.02;100.00;99461.28;5026326;28;20045;-83
2024/01/17 12:54:45;;;;;;;6.95;3.60;;;;;;;1.06;100.00;99461.44;5024715;28;20056;-84
2024/01/17 12:57:14;;;;;;;6.38;2.85;;;;;;;1.11;100.00;99470.16;5017990;28;20123;-83
2024/01/17 12:59:49;;;;;;;6.78;3.97;;;;;;;1.10;100.00;99486.22;5026843;28;20277;-84
2024/01/17 13:02:18;;;;;;;5.07;3.10;;;;;;;1.06;100.00;99475.03;5026239;28;20049;-84
2024/01/17 13:05:09;;;;;;;7.15;3.42;;;;;;;1.16;100.00;99483.97;5027546;28;20046;-84
2024/01/17 13:07:41;;;;;;;6.50;3.50;;;;;;;1.09;100.00;99479.41;5022513;28;20049;-84
2024/01/17 13:10:20;;;;;;;4.82;2.67;;;;;;;1.13;100.00;99483.84;5026319;28;20041;-84
2024/01/17 13:12:55;;;;;;;6.68;3.28;;;;;;;1.17;100.00;99485.72;5017803;28;21717;-84
2024/01/17 13:15:24;;;;;;;5.97;3.10;;;;;;;1.19;100.00;99490.09;5025505;28;20049;-84
2024/01/17 13:17:56;;;;;;;5.55;2.85;;;;;;;1.22;100.00;99474.94;5024810;28;20425;-84
2024/01/17 13:20:33;;;;;;;6.63;3.33;;;;;;;1.27;100.00;99485.34;5025041;28;20056;-84
2024/01/17 13:23:04;;;;;;;6.90;3.63;;;;;;;1.33;100.00;99482.19;5026321;28;20563;-84
2024/01/17 13:25:33;;;;;;;5.63;3.45;;;;;;;1.34;100.00;99476.31;5028420;28;20053;-84
2024/01/17 13:28:06;;;;;;;8.32;3.83;;;;;;;1.35;100.00;99486.59;5025052;28;20124;-84
2024/01/17 13:30:37;;;;;;;7.30;3.43;;;;;;;1.33;100.00;99474.56;5026684;28;20057;-84
2024/01/17 13:33:07;;;;;;;5.05;3.28;;;;;;;1.37;100.00;99464.56;5025445;28;20123;-84
2024/01/17 13:35:36;;;;;;;7.68;3.83;;;;;;;1.37;100.00;99464.56;5024704;28;20041;-83
2024/01/17 13:38:14;;;;;;;8.07;3.85;;;;;;;1.37;100.00;99474.75;5022410;28;20092;-83